sensor_id;sensor_type;location;lat;lon;timestamp;temperature;humidity
6738;DHT22;3406;49.902;8.596;2023-07-31T00:01:32;19.50;64.90
6738;DHT22;3406;49.902;8.596;2023-07-31T00:03:59;19.50;65.00
6738;DHT22;3406;49.902;8.596;2023-07-31T00:06:25;19.40;65.00
6738;DHT22;3406;49.902;8.596;2023-07-31T00:08:53;19.40;65.10
6738;DHT22;3406;49.902;8.596;2023-07-31T00:11:20;19.40;65.10
6738;DHT22;3406;49.902;8.596;2023-07-31T00:13:47;19.40;65.00
6738;DHT22;3406;49.902;8.596;2023-07-31T00:16:13;19.50;65.20
6738;DHT22;3406;49.902;8.596;2023-07-31T00:18:40;19.50;65.00
6738;DHT22;3406;49.902;8.596;2023-07-31T00:21:06;19.50;64.80
6738;DHT22;3406;49.902;8.596;2023-07-31T00:23:33;19.50;64.80
6738;DHT22;3406;49.902;8.596;2023-07-31T00:26:01;19.50;64.70
6738;DHT22;3406;49.902;8.596;2023-07-31T00:28:28;19.50;64.50
6738;DHT22;3406;49.902;8.596;2023-07-31T00:30:55;19.50;64.40
6738;DHT22;3406;49.902;8.596;2023-07-31T00:33:21;19.60;64.40
6738;DHT22;3406;49.902;8.596;2023-07-31T00:35:48;19.60;64.30
6738;DHT22;3406;49.902;8.596;2023-07-31T00:38:15;19.60;64.20
6738;DHT22;3406;49.902;8.596;2023-07-31T00:40:41;19.60;64.10
6738;DHT22;3406;49.902;8.596;2023-07-31T00:43:09;19.60;64.10
6738;DHT22;3406;49.902;8.596;2023-07-31T00:45:36;19.60;64.00
6738;DHT22;3406;49.902;8.596;2023-07-31T00:48:03;19.60;63.90
6738;DHT22;3406;49.902;8.596;2023-07-31T00:50:31;19.60;63.80
6738;DHT22;3406;49.902;8.596;2023-07-31T00:52:59;19.60;63.70
6738;DHT22;3406;49.902;8.596;2023-07-31T00:55:28;19.70;63.80
6738;DHT22;3406;49.902;8.596;2023-07-31T00:57:55;19.60;63.60
6738;DHT22;3406;49.902;8.596;2023-07-31T01:00:23;19.60;63.60
6738;DHT22;3406;49.902;8.596;2023-07-31T01:02:51;19.60;63.60
6738;DHT22;3406;49.902;8.596;2023-07-31T01:05:23;19.60;63.60
6738;DHT22;3406;49.902;8.596;2023-07-31T01:07:55;19.60;63.60
6738;DHT22;3406;49.902;8.596;2023-07-31T01:10:26;19.60;63.60
6738;DHT22;3406;49.902;8.596;2023-07-31T01:12:56;19.60;63.60
6738;DHT22;3406;49.902;8.596;2023-07-31T01:15:25;19.60;63.60
6738;DHT22;3406;49.902;8.596;2023-07-31T01:17:51;19.60;63.60
6738;DHT22;3406;49.902;8.596;2023-07-31T01:20:21;19.60;63.60
6738;DHT22;3406;49.902;8.596;2023-07-31T01:23:08;19.60;63.60
6738;DHT22;3406;49.902;8.596;2023-07-31T01:26:03;19.60;63.60
6738;DHT22;3406;49.902;8.596;2023-07-31T01:28:36;19.60;63.60
6738;DHT22;3406;49.902;8.596;2023-07-31T01:31:07;19.60;63.50
6738;DHT22;3406;49.902;8.596;2023-07-31T01:33:36;19.60;63.50
6738;DHT22;3406;49.902;8.596;2023-07-31T01:36:04;19.60;63.40
6738;DHT22;3406;49.902;8.596;2023-07-31T01:38:31;19.60;63.40
6738;DHT22;3406;49.902;8.596;2023-07-31T01:40:59;19.60;63.90
6738;DHT22;3406;49.902;8.596;2023-07-31T01:43:25;19.60;63.40
6738;DHT22;3406;49.902;8.596;2023-07-31T01:45:52;19.60;63.40
6738;DHT22;3406;49.902;8.596;2023-07-31T01:48:19;19.60;63.40
6738;DHT22;3406;49.902;8.596;2023-07-31T01:50:45;19.50;63.30
6738;DHT22;3406;49.902;8.596;2023-07-31T01:53:12;19.60;63.40
6738;DHT22;3406;49.902;8.596;2023-07-31T01:55:39;19.50;63.30
6738;DHT22;3406;49.902;8.596;2023-07-31T01:58:07;19.50;63.40
6738;DHT22;3406;49.902;8.596;2023-07-31T02:00:33;19.50;63.40
6738;DHT22;3406;49.902;8.596;2023-07-31T02:03:00;19.50;63.50
6738;DHT22;3406;49.902;8.596;2023-07-31T02:05:27;19.50;63.50
6738;DHT22;3406;49.902;8.596;2023-07-31T02:07:53;19.50;63.50
6738;DHT22;3406;49.902;8.596;2023-07-31T02:10:20;19.50;63.50
6738;DHT22;3406;49.902;8.596;2023-07-31T02:12:46;19.50;63.50
6738;DHT22;3406;49.902;8.596;2023-07-31T02:15:15;19.50;63.70
6738;DHT22;3406;49.902;8.596;2023-07-31T02:17:41;19.50;63.70
6738;DHT22;3406;49.902;8.596;2023-07-31T02:20:08;19.50;63.70
6738;DHT22;3406;49.902;8.596;2023-07-31T02:22:35;19.50;63.70
6738;DHT22;3406;49.902;8.596;2023-07-31T02:25:02;19.50;63.80
6738;DHT22;3406;49.902;8.596;2023-07-31T02:27:29;19.40;63.80
6738;DHT22;3406;49.902;8.596;2023-07-31T02:29:55;19.40;63.90
6738;DHT22;3406;49.902;8.596;2023-07-31T02:32:26;19.40;63.90
6738;DHT22;3406;49.902;8.596;2023-07-31T02:34:52;19.40;64.00
6738;DHT22;3406;49.902;8.596;2023-07-31T02:37:19;19.40;64.10
6738;DHT22;3406;49.902;8.596;2023-07-31T02:39:45;19.40;64.20
6738;DHT22;3406;49.902;8.596;2023-07-31T02:42:12;19.40;64.30
6738;DHT22;3406;49.902;8.596;2023-07-31T02:44:39;19.40;64.30
6738;DHT22;3406;49.902;8.596;2023-07-31T02:47:06;19.30;64.30
6738;DHT22;3406;49.902;8.596;2023-07-31T02:49:34;19.30;64.30
6738;DHT22;3406;49.902;8.596;2023-07-31T02:52:00;19.40;64.30
6738;DHT22;3406;49.902;8.596;2023-07-31T02:54:27;19.30;64.30
6738;DHT22;3406;49.902;8.596;2023-07-31T02:56:53;19.30;64.30
6738;DHT22;3406;49.902;8.596;2023-07-31T02:59:20;19.30;64.30
6738;DHT22;3406;49.902;8.596;2023-07-31T03:01:47;19.30;64.30
6738;DHT22;3406;49.902;8.596;2023-07-31T03:04:13;19.30;64.40
6738;DHT22;3406;49.902;8.596;2023-07-31T03:06:42;19.30;64.50
6738;DHT22;3406;49.902;8.596;2023-07-31T03:09:09;19.30;64.50
6738;DHT22;3406;49.902;8.596;2023-07-31T03:11:36;19.20;64.50
6738;DHT22;3406;49.902;8.596;2023-07-31T03:14:04;19.20;64.60
6738;DHT22;3406;49.902;8.596;2023-07-31T03:16:31;19.20;64.60
6738;DHT22;3406;49.902;8.596;2023-07-31T03:18:57;19.20;64.60
6738;DHT22;3406;49.902;8.596;2023-07-31T03:21:24;19.20;64.60
6738;DHT22;3406;49.902;8.596;2023-07-31T03:23:52;19.20;64.60
6738;DHT22;3406;49.902;8.596;2023-07-31T03:26:19;19.20;64.60
6738;DHT22;3406;49.902;8.596;2023-07-31T03:28:45;19.20;64.70
6738;DHT22;3406;49.902;8.596;2023-07-31T03:31:12;19.20;64.70
6738;DHT22;3406;49.902;8.596;2023-07-31T03:33:39;19.20;64.80
6738;DHT22;3406;49.902;8.596;2023-07-31T03:36:05;19.20;64.90
6738;DHT22;3406;49.902;8.596;2023-07-31T03:38:33;19.20;64.90
6738;DHT22;3406;49.902;8.596;2023-07-31T03:41:01;19.20;65.00
6738;DHT22;3406;49.902;8.596;2023-07-31T03:43:28;19.20;65.10
6738;DHT22;3406;49.902;8.596;2023-07-31T03:49:54;19.10;65.70
6738;DHT22;3406;49.902;8.596;2023-07-31T03:52:21;19.00;66.20
6738;DHT22;3406;49.902;8.596;2023-07-31T03:54:47;18.90;67.10
6738;DHT22;3406;49.902;8.596;2023-07-31T03:57:15;18.80;67.60
6738;DHT22;3406;49.902;8.596;2023-07-31T03:59:42;18.70;68.10
6738;DHT22;3406;49.902;8.596;2023-07-31T04:02:08;18.60;68.60
6738;DHT22;3406;49.902;8.596;2023-07-31T04:04:35;18.60;69.20
6738;DHT22;3406;49.902;8.596;2023-07-31T04:07:02;18.50;69.80
6738;DHT22;3406;49.902;8.596;2023-07-31T04:09:29;18.40;70.30
6738;DHT22;3406;49.902;8.596;2023-07-31T04:11:55;18.40;70.50
6738;DHT22;3406;49.902;8.596;2023-07-31T04:14:23;18.30;70.70
6738;DHT22;3406;49.902;8.596;2023-07-31T04:16:50;18.30;71.20
6738;DHT22;3406;49.902;8.596;2023-07-31T04:19:17;18.30;71.50
6738;DHT22;3406;49.902;8.596;2023-07-31T04:21:44;18.30;71.70
6738;DHT22;3406;49.902;8.596;2023-07-31T04:24:11;18.30;72.00
6738;DHT22;3406;49.902;8.596;2023-07-31T04:26:37;18.30;72.40
6738;DHT22;3406;49.902;8.596;2023-07-31T04:29:04;18.30;72.50
6738;DHT22;3406;49.902;8.596;2023-07-31T04:31:33;18.30;72.50
6738;DHT22;3406;49.902;8.596;2023-07-31T04:33:59;18.20;72.60
6738;DHT22;3406;49.902;8.596;2023-07-31T04:36:26;18.30;72.80
6738;DHT22;3406;49.902;8.596;2023-07-31T04:38:53;18.20;72.80
6738;DHT22;3406;49.902;8.596;2023-07-31T04:41:19;18.30;72.90
6738;DHT22;3406;49.902;8.596;2023-07-31T04:43:47;18.30;73.00
6738;DHT22;3406;49.902;8.596;2023-07-31T04:46:13;18.30;72.90
6738;DHT22;3406;49.902;8.596;2023-07-31T04:48:42;18.30;72.80
6738;DHT22;3406;49.902;8.596;2023-07-31T04:51:08;18.30;72.80
6738;DHT22;3406;49.902;8.596;2023-07-31T04:53:35;18.40;72.90
6738;DHT22;3406;49.902;8.596;2023-07-31T04:56:02;18.40;72.80
6738;DHT22;3406;49.902;8.596;2023-07-31T04:58:29;18.40;72.60
6738;DHT22;3406;49.902;8.596;2023-07-31T05:00:56;18.50;72.50
6738;DHT22;3406;49.902;8.596;2023-07-31T05:03:22;18.50;72.40
6738;DHT22;3406;49.902;8.596;2023-07-31T05:05:51;18.50;72.20
6738;DHT22;3406;49.902;8.596;2023-07-31T05:08:17;18.50;72.00
6738;DHT22;3406;49.902;8.596;2023-07-31T05:10:44;18.60;72.00
6738;DHT22;3406;49.902;8.596;2023-07-31T05:13:10;18.60;71.80
6738;DHT22;3406;49.902;8.596;2023-07-31T05:15:37;18.60;71.60
6738;DHT22;3406;49.902;8.596;2023-07-31T05:18:04;18.60;71.50
6738;DHT22;3406;49.902;8.596;2023-07-31T05:20:31;18.70;71.40
6738;DHT22;3406;49.902;8.596;2023-07-31T05:22:59;18.70;71.20
6738;DHT22;3406;49.902;8.596;2023-07-31T05:25:25;18.70;71.10
6738;DHT22;3406;49.902;8.596;2023-07-31T05:27:52;18.70;71.00
6738;DHT22;3406;49.902;8.596;2023-07-31T05:30:19;18.80;71.00
6738;DHT22;3406;49.902;8.596;2023-07-31T05:32:46;18.70;70.70
6738;DHT22;3406;49.902;8.596;2023-07-31T05:35:13;18.80;70.70
6738;DHT22;3406;49.902;8.596;2023-07-31T05:37:40;18.80;70.60
6738;DHT22;3406;49.902;8.596;2023-07-31T05:40:09;18.80;70.50
6738;DHT22;3406;49.902;8.596;2023-07-31T05:42:35;18.80;70.50
6738;DHT22;3406;49.902;8.596;2023-07-31T05:45:05;18.80;70.50
6738;DHT22;3406;49.902;8.596;2023-07-31T05:47:31;18.90;70.50
6738;DHT22;3406;49.902;8.596;2023-07-31T05:49:58;18.90;70.40
6738;DHT22;3406;49.902;8.596;2023-07-31T05:52:25;18.90;70.30
6738;DHT22;3406;49.902;8.596;2023-07-31T05:54:51;18.90;70.10
6738;DHT22;3406;49.902;8.596;2023-07-31T05:57:19;18.90;70.10
6738;DHT22;3406;49.902;8.596;2023-07-31T05:59:46;18.90;70.00
6738;DHT22;3406;49.902;8.596;2023-07-31T06:02:13;18.90;70.00
6738;DHT22;3406;49.902;8.596;2023-07-31T06:04:39;19.00;70.00
6738;DHT22;3406;49.902;8.596;2023-07-31T06:07:06;19.00;69.90
6738;DHT22;3406;49.902;8.596;2023-07-31T06:09:33;19.00;69.90
6738;DHT22;3406;49.902;8.596;2023-07-31T06:11:59;19.10;69.80
6738;DHT22;3406;49.902;8.596;2023-07-31T06:14:27;19.10;69.60
6738;DHT22;3406;49.902;8.596;2023-07-31T06:16:54;19.10;69.40
6738;DHT22;3406;49.902;8.596;2023-07-31T06:19:21;19.20;69.40
6738;DHT22;3406;49.902;8.596;2023-07-31T06:21:48;19.30;69.30
6738;DHT22;3406;49.902;8.596;2023-07-31T06:24:14;19.30;69.10
6738;DHT22;3406;49.902;8.596;2023-07-31T06:26:44;19.40;69.00
6738;DHT22;3406;49.902;8.596;2023-07-31T06:29:11;19.50;68.80
6738;DHT22;3406;49.902;8.596;2023-07-31T06:31:39;19.60;68.60
6738;DHT22;3406;49.902;8.596;2023-07-31T06:34:06;19.70;68.30
6738;DHT22;3406;49.902;8.596;2023-07-31T06:36:33;19.90;68.80
6738;DHT22;3406;49.902;8.596;2023-07-31T06:39:00;19.90;67.40
6738;DHT22;3406;49.902;8.596;2023-07-31T06:41:26;20.00;67.20
6738;DHT22;3406;49.902;8.596;2023-07-31T06:43:53;20.00;67.00
6738;DHT22;3406;49.902;8.596;2023-07-31T06:46:20;20.00;66.80
6738;DHT22;3406;49.902;8.596;2023-07-31T06:48:48;20.00;66.70
6738;DHT22;3406;49.902;8.596;2023-07-31T06:51:14;20.10;66.70
6738;DHT22;3406;49.902;8.596;2023-07-31T06:53:41;20.20;66.60
6738;DHT22;3406;49.902;8.596;2023-07-31T06:56:10;20.40;66.40
6738;DHT22;3406;49.902;8.596;2023-07-31T06:58:37;20.50;66.20
6738;DHT22;3406;49.902;8.596;2023-07-31T07:01:04;20.50;65.80
6738;DHT22;3406;49.902;8.596;2023-07-31T07:03:30;20.60;65.80
6738;DHT22;3406;49.902;8.596;2023-07-31T07:05:59;20.60;65.50
6738;DHT22;3406;49.902;8.596;2023-07-31T07:08:26;20.60;65.40
6738;DHT22;3406;49.902;8.596;2023-07-31T07:10:52;20.50;65.40
6738;DHT22;3406;49.902;8.596;2023-07-31T07:13:19;20.60;66.40
6738;DHT22;3406;49.902;8.596;2023-07-31T07:15:48;20.60;65.60
6738;DHT22;3406;49.902;8.596;2023-07-31T07:18:15;20.80;65.60
6738;DHT22;3406;49.902;8.596;2023-07-31T07:20:46;21.00;65.10
6738;DHT22;3406;49.902;8.596;2023-07-31T07:23:14;21.10;64.90
6738;DHT22;3406;49.902;8.596;2023-07-31T07:25:41;21.10;64.70
6738;DHT22;3406;49.902;8.596;2023-07-31T07:28:08;21.10;64.60
6738;DHT22;3406;49.902;8.596;2023-07-31T07:30:35;21.10;64.60
6738;DHT22;3406;49.902;8.596;2023-07-31T07:33:01;21.10;64.60
6738;DHT22;3406;49.902;8.596;2023-07-31T07:35:28;21.20;64.80
6738;DHT22;3406;49.902;8.596;2023-07-31T07:37:55;21.20;64.60
6738;DHT22;3406;49.902;8.596;2023-07-31T07:40:23;21.20;64.50
6738;DHT22;3406;49.902;8.596;2023-07-31T07:42:50;21.20;64.40
6738;DHT22;3406;49.902;8.596;2023-07-31T07:45:16;21.20;64.20
6738;DHT22;3406;49.902;8.596;2023-07-31T07:47:43;21.10;64.20
6738;DHT22;3406;49.902;8.596;2023-07-31T07:50:10;21.20;64.30
6738;DHT22;3406;49.902;8.596;2023-07-31T07:52:36;21.20;64.60
6738;DHT22;3406;49.902;8.596;2023-07-31T07:55:04;21.20;64.50
6738;DHT22;3406;49.902;8.596;2023-07-31T07:57:32;21.10;64.40
6738;DHT22;3406;49.902;8.596;2023-07-31T07:59:58;21.10;64.40
6738;DHT22;3406;49.902;8.596;2023-07-31T08:02:25;21.10;64.60
6738;DHT22;3406;49.902;8.596;2023-07-31T08:04:52;21.20;64.60
6738;DHT22;3406;49.902;8.596;2023-07-31T08:07:18;21.20;64.30
6738;DHT22;3406;49.902;8.596;2023-07-31T08:09:45;21.30;64.10
6738;DHT22;3406;49.902;8.596;2023-07-31T08:12:12;21.40;64.00
6738;DHT22;3406;49.902;8.596;2023-07-31T08:14:39;21.50;63.60
6738;DHT22;3406;49.902;8.596;2023-07-31T08:17:06;21.50;63.40
6738;DHT22;3406;49.902;8.596;2023-07-31T08:19:33;21.60;63.50
6738;DHT22;3406;49.902;8.596;2023-07-31T08:21:59;21.60;63.60
6738;DHT22;3406;49.902;8.596;2023-07-31T08:24:26;21.70;63.40
6738;DHT22;3406;49.902;8.596;2023-07-31T08:26:53;21.70;63.40
6738;DHT22;3406;49.902;8.596;2023-07-31T08:29:19;21.80;63.30
6738;DHT22;3406;49.902;8.596;2023-07-31T08:31:47;22.10;63.30
6738;DHT22;3406;49.902;8.596;2023-07-31T08:34:14;22.40;62.70
6738;DHT22;3406;49.902;8.596;2023-07-31T08:36:40;22.70;62.30
6738;DHT22;3406;49.902;8.596;2023-07-31T08:39:07;22.90;61.70
6738;DHT22;3406;49.902;8.596;2023-07-31T08:41:37;22.90;61.40
6738;DHT22;3406;49.902;8.596;2023-07-31T08:44:04;23.00;61.40
6738;DHT22;3406;49.902;8.596;2023-07-31T08:46:31;23.00;61.10
6738;DHT22;3406;49.902;8.596;2023-07-31T08:49:04;23.00;60.70
6738;DHT22;3406;49.902;8.596;2023-07-31T08:51:33;22.80;60.70
6738;DHT22;3406;49.902;8.596;2023-07-31T08:54:00;22.90;61.00
6738;DHT22;3406;49.902;8.596;2023-07-31T08:56:29;22.90;60.80
6738;DHT22;3406;49.902;8.596;2023-07-31T08:58:58;23.00;60.60
6738;DHT22;3406;49.902;8.596;2023-07-31T09:01:26;23.00;60.50
6738;DHT22;3406;49.902;8.596;2023-07-31T09:03:56;22.90;60.30
6738;DHT22;3406;49.902;8.596;2023-07-31T09:06:26;22.90;60.40
6738;DHT22;3406;49.902;8.596;2023-07-31T09:08:55;22.80;60.60
6738;DHT22;3406;49.902;8.596;2023-07-31T09:11:21;22.80;60.70
6738;DHT22;3406;49.902;8.596;2023-07-31T09:13:50;22.80;60.40
6738;DHT22;3406;49.902;8.596;2023-07-31T09:16:16;22.70;60.50
6738;DHT22;3406;49.902;8.596;2023-07-31T09:18:56;22.60;60.70
6738;DHT22;3406;49.902;8.596;2023-07-31T09:21:25;22.60;60.90
6738;DHT22;3406;49.902;8.596;2023-07-31T09:23:53;22.50;61.40
6738;DHT22;3406;49.902;8.596;2023-07-31T09:26:31;22.40;62.00
6738;DHT22;3406;49.902;8.596;2023-07-31T09:28:58;22.40;62.80
6738;DHT22;3406;49.902;8.596;2023-07-31T09:31:42;22.40;62.70
6738;DHT22;3406;49.902;8.596;2023-07-31T09:34:10;22.70;62.60
6738;DHT22;3406;49.902;8.596;2023-07-31T09:36:44;22.80;61.80
6738;DHT22;3406;49.902;8.596;2023-07-31T09:39:12;23.00;60.90
6738;DHT22;3406;49.902;8.596;2023-07-31T09:41:39;23.10;59.80
6738;DHT22;3406;49.902;8.596;2023-07-31T09:44:06;23.10;59.30
6738;DHT22;3406;49.902;8.596;2023-07-31T09:46:35;23.20;59.00
6738;DHT22;3406;49.902;8.596;2023-07-31T09:49:07;23.20;58.80
6738;DHT22;3406;49.902;8.596;2023-07-31T09:51:34;23.40;58.60
6738;DHT22;3406;49.902;8.596;2023-07-31T09:54:09;23.40;58.00
6738;DHT22;3406;49.902;8.596;2023-07-31T09:56:39;23.40;57.90
6738;DHT22;3406;49.902;8.596;2023-07-31T09:59:08;23.40;57.90
6738;DHT22;3406;49.902;8.596;2023-07-31T10:01:36;23.50;57.80
6738;DHT22;3406;49.902;8.596;2023-07-31T10:04:04;23.50;57.80
6738;DHT22;3406;49.902;8.596;2023-07-31T10:06:33;23.60;57.80
6738;DHT22;3406;49.902;8.596;2023-07-31T10:09:01;23.50;57.70
6738;DHT22;3406;49.902;8.596;2023-07-31T10:11:30;23.60;57.60
6738;DHT22;3406;49.902;8.596;2023-07-31T10:13:59;23.60;57.50
6738;DHT22;3406;49.902;8.596;2023-07-31T10:16:26;23.60;57.10
6738;DHT22;3406;49.902;8.596;2023-07-31T10:18:54;23.60;56.60
6738;DHT22;3406;49.902;8.596;2023-07-31T10:21:21;23.60;56.70
6738;DHT22;3406;49.902;8.596;2023-07-31T10:23:48;23.70;56.50
6738;DHT22;3406;49.902;8.596;2023-07-31T10:26:17;23.70;56.00
6738;DHT22;3406;49.902;8.596;2023-07-31T10:28:47;23.70;56.00
6738;DHT22;3406;49.902;8.596;2023-07-31T10:31:14;23.70;56.10
6738;DHT22;3406;49.902;8.596;2023-07-31T10:33:42;23.60;55.80
6738;DHT22;3406;49.902;8.596;2023-07-31T10:36:17;23.60;55.60
6738;DHT22;3406;49.902;8.596;2023-07-31T10:38:44;23.70;55.70
6738;DHT22;3406;49.902;8.596;2023-07-31T10:41:11;23.70;55.80
6738;DHT22;3406;49.902;8.596;2023-07-31T10:43:38;23.80;56.00
6738;DHT22;3406;49.902;8.596;2023-07-31T10:46:09;23.80;55.90
6738;DHT22;3406;49.902;8.596;2023-07-31T10:48:39;23.80;55.80
6738;DHT22;3406;49.902;8.596;2023-07-31T10:51:08;24.00;55.80
6738;DHT22;3406;49.902;8.596;2023-07-31T10:53:36;24.00;55.50
6738;DHT22;3406;49.902;8.596;2023-07-31T10:56:04;24.10;55.50
6738;DHT22;3406;49.902;8.596;2023-07-31T10:58:31;24.20;55.20
6738;DHT22;3406;49.902;8.596;2023-07-31T11:01:00;24.20;55.00
6738;DHT22;3406;49.902;8.596;2023-07-31T11:03:42;24.20;55.10
6738;DHT22;3406;49.902;8.596;2023-07-31T11:06:10;24.20;55.20
6738;DHT22;3406;49.902;8.596;2023-07-31T11:08:42;24.20;55.10
6738;DHT22;3406;49.902;8.596;2023-07-31T11:11:10;24.20;55.20
6738;DHT22;3406;49.902;8.596;2023-07-31T11:13:42;24.10;55.30
6738;DHT22;3406;49.902;8.596;2023-07-31T11:16:10;24.00;55.50
6738;DHT22;3406;49.902;8.596;2023-07-31T11:18:40;23.90;55.60
6738;DHT22;3406;49.902;8.596;2023-07-31T11:21:07;23.80;55.60
6738;DHT22;3406;49.902;8.596;2023-07-31T11:23:36;23.70;55.70
6738;DHT22;3406;49.902;8.596;2023-07-31T11:26:05;23.60;55.90
6738;DHT22;3406;49.902;8.596;2023-07-31T11:28:32;23.60;56.10
6738;DHT22;3406;49.902;8.596;2023-07-31T11:31:00;23.70;56.20
6738;DHT22;3406;49.902;8.596;2023-07-31T11:33:27;23.80;55.90
6738;DHT22;3406;49.902;8.596;2023-07-31T11:35:55;23.80;55.60
6738;DHT22;3406;49.902;8.596;2023-07-31T11:38:22;23.90;55.70
6738;DHT22;3406;49.902;8.596;2023-07-31T11:40:50;23.90;55.60
6738;DHT22;3406;49.902;8.596;2023-07-31T11:43:18;24.00;55.60
6738;DHT22;3406;49.902;8.596;2023-07-31T11:45:46;23.90;55.60
6738;DHT22;3406;49.902;8.596;2023-07-31T11:48:19;23.80;55.80
6738;DHT22;3406;49.902;8.596;2023-07-31T11:50:46;23.70;56.10
6738;DHT22;3406;49.902;8.596;2023-07-31T11:53:17;23.70;56.30
6738;DHT22;3406;49.902;8.596;2023-07-31T11:55:45;23.60;56.50
6738;DHT22;3406;49.902;8.596;2023-07-31T11:58:13;23.60;56.50
6738;DHT22;3406;49.902;8.596;2023-07-31T12:00:41;23.50;56.60
6738;DHT22;3406;49.902;8.596;2023-07-31T12:03:08;23.50;56.70
6738;DHT22;3406;49.902;8.596;2023-07-31T12:05:37;23.60;56.90
6738;DHT22;3406;49.902;8.596;2023-07-31T12:08:09;23.60;56.90
6738;DHT22;3406;49.902;8.596;2023-07-31T12:10:37;23.60;56.90
6738;DHT22;3406;49.902;8.596;2023-07-31T12:13:07;23.70;57.00
6738;DHT22;3406;49.902;8.596;2023-07-31T12:15:37;23.70;57.00
6738;DHT22;3406;49.902;8.596;2023-07-31T12:18:05;23.70;56.90
6738;DHT22;3406;49.902;8.596;2023-07-31T12:20:32;23.60;56.90
6738;DHT22;3406;49.902;8.596;2023-07-31T12:22:59;23.70;57.50
6738;DHT22;3406;49.902;8.596;2023-07-31T12:25:33;23.60;56.80
6738;DHT22;3406;49.902;8.596;2023-07-31T12:28:06;23.60;56.80
6738;DHT22;3406;49.902;8.596;2023-07-31T12:30:38;23.50;56.80
6738;DHT22;3406;49.902;8.596;2023-07-31T12:33:06;23.50;56.80
6738;DHT22;3406;49.902;8.596;2023-07-31T12:35:41;23.50;57.00
6738;DHT22;3406;49.902;8.596;2023-07-31T12:38:08;23.40;56.90
6738;DHT22;3406;49.902;8.596;2023-07-31T12:40:37;23.50;57.00
6738;DHT22;3406;49.902;8.596;2023-07-31T12:43:10;23.40;56.90
6738;DHT22;3406;49.902;8.596;2023-07-31T12:45:37;23.50;57.00
6738;DHT22;3406;49.902;8.596;2023-07-31T12:48:04;23.50;57.10
6738;DHT22;3406;49.902;8.596;2023-07-31T12:50:30;23.50;57.20
6738;DHT22;3406;49.902;8.596;2023-07-31T12:52:57;23.60;57.20
6738;DHT22;3406;49.902;8.596;2023-07-31T12:55:24;23.70;57.20
6738;DHT22;3406;49.902;8.596;2023-07-31T12:57:51;23.70;57.10
6738;DHT22;3406;49.902;8.596;2023-07-31T13:00:19;23.70;57.00
6738;DHT22;3406;49.902;8.596;2023-07-31T13:02:46;23.70;57.00
6738;DHT22;3406;49.902;8.596;2023-07-31T13:05:12;23.70;57.00
6738;DHT22;3406;49.902;8.596;2023-07-31T13:07:39;23.70;57.00
6738;DHT22;3406;49.902;8.596;2023-07-31T13:10:07;23.70;57.00
6738;DHT22;3406;49.902;8.596;2023-07-31T13:12:34;23.70;57.00
6738;DHT22;3406;49.902;8.596;2023-07-31T13:15:00;23.80;57.10
6738;DHT22;3406;49.902;8.596;2023-07-31T13:17:28;23.80;57.50
6738;DHT22;3406;49.902;8.596;2023-07-31T13:19:55;23.90;56.60
6738;DHT22;3406;49.902;8.596;2023-07-31T13:22:22;23.90;56.40
6738;DHT22;3406;49.902;8.596;2023-07-31T13:24:48;23.90;56.00
6738;DHT22;3406;49.902;8.596;2023-07-31T13:27:15;23.90;55.90
6738;DHT22;3406;49.902;8.596;2023-07-31T13:29:44;23.90;55.90
6738;DHT22;3406;49.902;8.596;2023-07-31T13:32:10;23.90;55.90
6738;DHT22;3406;49.902;8.596;2023-07-31T13:34:38;23.90;56.00
6738;DHT22;3406;49.902;8.596;2023-07-31T13:37:05;23.90;56.10
6738;DHT22;3406;49.902;8.596;2023-07-31T13:39:32;23.80;55.90
6738;DHT22;3406;49.902;8.596;2023-07-31T13:41:59;23.80;55.90
6738;DHT22;3406;49.902;8.596;2023-07-31T13:44:26;23.80;55.90
6738;DHT22;3406;49.902;8.596;2023-07-31T13:46:52;23.80;56.00
6738;DHT22;3406;49.902;8.596;2023-07-31T13:49:19;23.80;56.10
6738;DHT22;3406;49.902;8.596;2023-07-31T13:51:47;23.90;56.20
6738;DHT22;3406;49.902;8.596;2023-07-31T13:54:14;23.90;56.30
6738;DHT22;3406;49.902;8.596;2023-07-31T13:56:41;23.80;56.30
6738;DHT22;3406;49.902;8.596;2023-07-31T13:59:08;23.80;56.40
6738;DHT22;3406;49.902;8.596;2023-07-31T14:01:34;23.80;56.40
6738;DHT22;3406;49.902;8.596;2023-07-31T14:04:01;23.70;56.50
6738;DHT22;3406;49.902;8.596;2023-07-31T14:06:27;23.70;56.60
6738;DHT22;3406;49.902;8.596;2023-07-31T14:08:55;23.70;56.70
6738;DHT22;3406;49.902;8.596;2023-07-31T14:11:22;23.70;56.80
6738;DHT22;3406;49.902;8.596;2023-07-31T14:13:50;23.70;56.90
6738;DHT22;3406;49.902;8.596;2023-07-31T14:16:17;23.70;57.00
6738;DHT22;3406;49.902;8.596;2023-07-31T14:18:44;23.70;57.10
6738;DHT22;3406;49.902;8.596;2023-07-31T14:21:10;23.60;57.30
6738;DHT22;3406;49.902;8.596;2023-07-31T14:23:37;23.60;57.30
6738;DHT22;3406;49.902;8.596;2023-07-31T14:26:05;23.50;57.40
6738;DHT22;3406;49.902;8.596;2023-07-31T14:28:32;23.50;57.50
6738;DHT22;3406;49.902;8.596;2023-07-31T14:30:59;23.50;57.50
6738;DHT22;3406;49.902;8.596;2023-07-31T14:33:25;23.40;57.60
6738;DHT22;3406;49.902;8.596;2023-07-31T14:35:52;23.40;57.70
6738;DHT22;3406;49.902;8.596;2023-07-31T14:38:19;23.40;57.80
6738;DHT22;3406;49.902;8.596;2023-07-31T14:40:46;23.30;57.80
6738;DHT22;3406;49.902;8.596;2023-07-31T14:43:14;23.30;57.80
6738;DHT22;3406;49.902;8.596;2023-07-31T14:45:41;23.30;57.90
6738;DHT22;3406;49.902;8.596;2023-07-31T14:48:07;23.30;57.80
6738;DHT22;3406;49.902;8.596;2023-07-31T14:50:34;23.30;57.90
6738;DHT22;3406;49.902;8.596;2023-07-31T14:53:01;23.30;57.90
6738;DHT22;3406;49.902;8.596;2023-07-31T14:55:28;23.30;57.80
6738;DHT22;3406;49.902;8.596;2023-07-31T14:57:54;23.30;57.70
6738;DHT22;3406;49.902;8.596;2023-07-31T15:00:22;23.30;57.70
6738;DHT22;3406;49.902;8.596;2023-07-31T15:02:49;23.30;57.70
6738;DHT22;3406;49.902;8.596;2023-07-31T15:05:16;23.30;57.60
6738;DHT22;3406;49.902;8.596;2023-07-31T15:07:43;23.30;57.50
6738;DHT22;3406;49.902;8.596;2023-07-31T15:10:09;23.30;57.60
6738;DHT22;3406;49.902;8.596;2023-07-31T15:12:36;23.30;57.70
6738;DHT22;3406;49.902;8.596;2023-07-31T15:15:05;23.20;57.80
6738;DHT22;3406;49.902;8.596;2023-07-31T15:17:33;23.20;57.90
6738;DHT22;3406;49.902;8.596;2023-07-31T15:20:00;23.20;58.10
6738;DHT22;3406;49.902;8.596;2023-07-31T15:22:26;23.10;58.10
6738;DHT22;3406;49.902;8.596;2023-07-31T15:24:53;23.10;58.30
6738;DHT22;3406;49.902;8.596;2023-07-31T15:27:20;23.10;58.30
6738;DHT22;3406;49.902;8.596;2023-07-31T15:29:46;23.10;58.40
6738;DHT22;3406;49.902;8.596;2023-07-31T15:32:13;23.10;58.50
6738;DHT22;3406;49.902;8.596;2023-07-31T15:34:41;23.10;58.50
6738;DHT22;3406;49.902;8.596;2023-07-31T15:37:07;23.10;58.50
6738;DHT22;3406;49.902;8.596;2023-07-31T15:39:35;23.20;58.60
6738;DHT22;3406;49.902;8.596;2023-07-31T15:42:02;23.10;58.40
6738;DHT22;3406;49.902;8.596;2023-07-31T15:44:29;23.10;58.30
6738;DHT22;3406;49.902;8.596;2023-07-31T15:46:55;23.10;58.30
6738;DHT22;3406;49.902;8.596;2023-07-31T15:49:22;23.10;58.40
6738;DHT22;3406;49.902;8.596;2023-07-31T15:51:50;23.10;58.50
6738;DHT22;3406;49.902;8.596;2023-07-31T15:54:16;23.10;58.40
6738;DHT22;3406;49.902;8.596;2023-07-31T15:56:44;23.10;58.40
6738;DHT22;3406;49.902;8.596;2023-07-31T15:59:10;23.10;58.30
6738;DHT22;3406;49.902;8.596;2023-07-31T16:01:37;23.10;57.80
6738;DHT22;3406;49.902;8.596;2023-07-31T16:04:04;23.10;57.50
6738;DHT22;3406;49.902;8.596;2023-07-31T16:06:30;23.10;57.30
6738;DHT22;3406;49.902;8.596;2023-07-31T16:08:58;23.10;57.10